sensor_id;sensor_type;location;lat;lon;timestamp;temperature;humidity
15749;DHT22;7976;52.526;13.326;2024-01-15T00:01:09;2.60;99.90
15749;DHT22;7976;52.526;13.326;2024-01-15T00:03:36;2.50;99.90
15749;DHT22;7976;52.526;13.326;2024-01-15T00:06:03;2.50;99.90
15749;DHT22;7976;52.526;13.326;2024-01-15T00:08:30;2.40;99.90
15749;DHT22;7976;52.526;13.326;2024-01-15T00:10:57;2.40;99.90
15749;DHT22;7976;52.526;13.326;2024-01-15T00:13:24;2.40;99.90
15749;DHT22;7976;52.526;13.326;2024-01-15T00:15:53;2.40;99.90
15749;DHT22;7976;52.526;13.326;2024-01-15T00:18:20;2.40;99.90
15749;DHT22;7976;52.526;13.326;2024-01-15T00:20:46;2.40;99.90
15749;DHT22;7976;52.526;13.326;2024-01-15T00:23:13;2.50;99.90
15749;DHT22;7976;52.526;13.326;2024-01-15T00:25:41;2.50;99.90
15749;DHT22;7976;52.526;13.326;2024-01-15T00:28:08;2.40;99.90
15749;DHT22;7976;52.526;13.326;2024-01-15T00:30:35;2.40;99.90
15749;DHT22;7976;52.526;13.326;2024-01-15T00:33:03;2.40;99.90
15749;DHT22;7976;52.526;13.326;2024-01-15T00:35:30;2.40;99.90
15749;DHT22;7976;52.526;13.326;2024-01-15T00:37:57;2.50;99.90
15749;DHT22;7976;52.526;13.326;2024-01-15T00:40:25;2.50;99.90
15749;DHT22;7976;52.526;13.326;2024-01-15T00:42:51;2.50;99.90
15749;DHT22;7976;52.526;13.326;2024-01-15T00:45:18;2.50;99.90
15749;DHT22;7976;52.526;13.326;2024-01-15T00:47:45;2.50;99.90
15749;DHT22;7976;52.526;13.326;2024-01-15T00:50:13;2.50;99.90
15749;DHT22;7976;52.526;13.326;2024-01-15T00:52:40;2.50;99.90
15749;DHT22;7976;52.526;13.326;2024-01-15T00:55:07;2.50;99.90
15749;DHT22;7976;52.526;13.326;2024-01-15T00:57:34;2.50;99.90
15749;DHT22;7976;52.526;13.326;2024-01-15T01:00:01;2.50;99.90
15749;DHT22;7976;52.526;13.326;2024-01-15T01:02:28;2.50;99.90
15749;DHT22;7976;52.526;13.326;2024-01-15T01:04:55;2.40;99.90
15749;DHT22;7976;52.526;13.326;2024-01-15T01:07:24;2.40;99.90
15749;DHT22;7976;52.526;13.326;2024-01-15T01:09:51;2.40;99.90
15749;DHT22;7976;52.526;13.326;2024-01-15T01:12:17;2.30;99.90
15749;DHT22;7976;52.526;13.326;2024-01-15T01:14:44;2.30;99.90
15749;DHT22;7976;52.526;13.326;2024-01-15T01:17:11;2.20;99.90
15749;DHT22;7976;52.526;13.326;2024-01-15T01:19:38;2.10;99.90
15749;DHT22;7976;52.526;13.326;2024-01-15T01:22:05;2.10;99.90
15749;DHT22;7976;52.526;13.326;2024-01-15T01:24:34;2.00;99.90
15749;DHT22;7976;52.526;13.326;2024-01-15T01:27:01;2.00;99.90
15749;DHT22;7976;52.526;13.326;2024-01-15T01:29:28;2.00;99.90
15749;DHT22;7976;52.526;13.326;2024-01-15T01:31:55;1.90;99.90
15749;DHT22;7976;52.526;13.326;2024-01-15T01:34:22;1.90;99.90
15749;DHT22;7976;52.526;13.326;2024-01-15T01:36:50;1.90;99.90
15749;DHT22;7976;52.526;13.326;2024-01-15T01:39:17;1.90;99.90
15749;DHT22;7976;52.526;13.326;2024-01-15T01:41:45;1.90;99.90
15749;DHT22;7976;52.526;13.326;2024-01-15T01:44:12;1.90;99.90
15749;DHT22;7976;52.526;13.326;2024-01-15T01:46:39;1.70;99.90
15749;DHT22;7976;52.526;13.326;2024-01-15T01:49:06;1.60;99.90
15749;DHT22;7976;52.526;13.326;2024-01-15T01:51:35;1.50;99.90
15749;DHT22;7976;52.526;13.326;2024-01-15T01:54:03;1.60;99.90
15749;DHT22;7976;52.526;13.326;2024-01-15T01:56:31;1.50;99.90
15749;DHT22;7976;52.526;13.326;2024-01-15T01:59:00;1.60;99.90
15749;DHT22;7976;52.526;13.326;2024-01-15T02:01:28;1.60;99.90
15749;DHT22;7976;52.526;13.326;2024-01-15T02:03:58;1.60;99.90
15749;DHT22;7976;52.526;13.326;2024-01-15T02:06:25;1.60;99.90
15749;DHT22;7976;52.526;13.326;2024-01-15T02:08:52;1.60;99.90
15749;DHT22;7976;52.526;13.326;2024-01-15T02:11:19;1.60;99.90
15749;DHT22;7976;52.526;13.326;2024-01-15T02:13:47;1.60;99.90
15749;DHT22;7976;52.526;13.326;2024-01-15T02:16:15;1.60;99.90
15749;DHT22;7976;52.526;13.326;2024-01-15T02:18:44;1.60;99.90
15749;DHT22;7976;52.526;13.326;2024-01-15T02:21:12;1.60;99.90
15749;DHT22;7976;52.526;13.326;2024-01-15T02:23:40;1.60;99.90
15749;DHT22;7976;52.526;13.326;2024-01-15T02:26:08;1.50;99.90
15749;DHT22;7976;52.526;13.326;2024-01-15T02:28:35;1.60;99.90
15749;DHT22;7976;52.526;13.326;2024-01-15T02:31:02;1.60;99.90
15749;DHT22;7976;52.526;13.326;2024-01-15T02:33:29;1.60;99.90
15749;DHT22;7976;52.526;13.326;2024-01-15T02:35:57;1.60;99.90
15749;DHT22;7976;52.526;13.326;2024-01-15T02:38:24;1.60;99.90
15749;DHT22;7976;52.526;13.326;2024-01-15T02:40:54;1.60;99.90
15749;DHT22;7976;52.526;13.326;2024-01-15T02:43:21;1.60;99.90
15749;DHT22;7976;52.526;13.326;2024-01-15T02:45:48;1.60;99.90
15749;DHT22;7976;52.526;13.326;2024-01-15T02:48:15;1.60;99.90
15749;DHT22;7976;52.526;13.326;2024-01-15T02:50:42;1.60;99.90
15749;DHT22;7976;52.526;13.326;2024-01-15T02:53:08;1.60;99.90
15749;DHT22;7976;52.526;13.326;2024-01-15T02:55:35;1.60;99.90
15749;DHT22;7976;52.526;13.326;2024-01-15T02:58:04;1.70;99.90
15749;DHT22;7976;52.526;13.326;2024-01-15T03:00:31;1.70;99.90
15749;DHT22;7976;52.526;13.326;2024-01-15T03:02:57;1.80;99.90
15749;DHT22;7976;52.526;13.326;2024-01-15T03:05:24;1.80;99.90
15749;DHT22;7976;52.526;13.326;2024-01-15T03:07:51;1.90;99.90
15749;DHT22;7976;52.526;13.326;2024-01-15T03:10:18;1.90;99.90
15749;DHT22;7976;52.526;13.326;2024-01-15T03:12:45;2.00;99.90
15749;DHT22;7976;52.526;13.326;2024-01-15T03:15:13;2.00;99.90
15749;DHT22;7976;52.526;13.326;2024-01-15T03:17:41;2.00;99.90
15749;DHT22;7976;52.526;13.326;2024-01-15T03:20:09;2.00;99.90
15749;DHT22;7976;52.526;13.326;2024-01-15T03:22:37;2.00;99.90
15749;DHT22;7976;52.526;13.326;2024-01-15T03:25:07;2.00;99.90
15749;DHT22;7976;52.526;13.326;2024-01-15T03:27:34;2.10;99.90
15749;DHT22;7976;52.526;13.326;2024-01-15T03:30:01;2.10;99.90
15749;DHT22;7976;52.526;13.326;2024-01-15T03:32:30;2.10;99.90
15749;DHT22;7976;52.526;13.326;2024-01-15T03:34:57;2.10;99.90
15749;DHT22;7976;52.526;13.326;2024-01-15T03:37:24;2.10;99.90
15749;DHT22;7976;52.526;13.326;2024-01-15T03:39:50;2.10;99.90
15749;DHT22;7976;52.526;13.326;2024-01-15T03:42:17;2.10;99.90
15749;DHT22;7976;52.526;13.326;2024-01-15T03:44:44;2.10;99.90
15749;DHT22;7976;52.526;13.326;2024-01-15T03:47:11;2.00;99.90
15749;DHT22;7976;52.526;13.326;2024-01-15T03:49:39;2.10;99.90
15749;DHT22;7976;52.526;13.326;2024-01-15T03:52:06;2.00;99.90
15749;DHT22;7976;52.526;13.326;2024-01-15T03:54:33;2.10;99.90
15749;DHT22;7976;52.526;13.326;2024-01-15T03:57:00;2.10;99.90
15749;DHT22;7976;52.526;13.326;2024-01-15T03:59:26;2.10;99.90
15749;DHT22;7976;52.526;13.326;2024-01-15T04:01:55;2.10;99.90
15749;DHT22;7976;52.526;13.326;2024-01-15T04:04:22;2.10;99.90
15749;DHT22;7976;52.526;13.326;2024-01-15T04:06:50;2.10;99.90
15749;DHT22;7976;52.526;13.326;2024-01-15T04:09:17;2.10;99.90
15749;DHT22;7976;52.526;13.326;2024-01-15T04:11:44;2.10;99.90
15749;DHT22;7976;52.526;13.326;2024-01-15T04:14:10;2.10;99.90
15749;DHT22;7976;52.526;13.326;2024-01-15T04:16:37;2.10;99.90
15749;DHT22;7976;52.526;13.326;2024-01-15T04:19:04;2.20;99.90
15749;DHT22;7976;52.526;13.326;2024-01-15T04:21:31;2.10;99.90
15749;DHT22;7976;52.526;13.326;2024-01-15T04:23:59;2.10;99.90
15749;DHT22;7976;52.526;13.326;2024-01-15T04:26:26;2.10;99.90
15749;DHT22;7976;52.526;13.326;2024-01-15T04:28:53;2.20;99.90
15749;DHT22;7976;52.526;13.326;2024-01-15T04:31:23;2.20;99.90
15749;DHT22;7976;52.526;13.326;2024-01-15T04:33:52;2.20;99.90
15749;DHT22;7976;52.526;13.326;2024-01-15T04:36:19;2.20;99.90
15749;DHT22;7976;52.526;13.326;2024-01-15T04:38:46;2.30;99.90
15749;DHT22;7976;52.526;13.326;2024-01-15T04:41:22;2.30;99.90
15749;DHT22;7976;52.526;13.326;2024-01-15T04:43:49;2.30;99.90
15749;DHT22;7976;52.526;13.326;2024-01-15T04:46:16;2.30;99.90
15749;DHT22;7976;52.526;13.326;2024-01-15T04:48:43;2.30;99.90
15749;DHT22;7976;52.526;13.326;2024-01-15T04:51:10;2.20;99.90
15749;DHT22;7976;52.526;13.326;2024-01-15T04:53:37;2.20;99.90
15749;DHT22;7976;52.526;13.326;2024-01-15T04:56:04;2.20;99.90
15749;DHT22;7976;52.526;13.326;2024-01-15T04:58:32;2.20;99.90
15749;DHT22;7976;52.526;13.326;2024-01-15T05:01:00;2.20;99.90
15749;DHT22;7976;52.526;13.326;2024-01-15T05:03:27;2.20;99.90
15749;DHT22;7976;52.526;13.326;2024-01-15T05:05:55;2.20;99.90
15749;DHT22;7976;52.526;13.326;2024-01-15T05:08:22;2.20;99.90
15749;DHT22;7976;52.526;13.326;2024-01-15T05:10:49;2.30;99.90
15749;DHT22;7976;52.526;13.326;2024-01-15T05:13:15;2.30;99.90
15749;DHT22;7976;52.526;13.326;2024-01-15T05:15:44;2.30;99.90
15749;DHT22;7976;52.526;13.326;2024-01-15T05:18:10;2.30;99.90
15749;DHT22;7976;52.526;13.326;2024-01-15T05:20:37;2.30;99.90
15749;DHT22;7976;52.526;13.326;2024-01-15T05:23:04;2.30;99.90
15749;DHT22;7976;52.526;13.326;2024-01-15T05:25:31;2.30;99.90
15749;DHT22;7976;52.526;13.326;2024-01-15T05:27:58;2.40;99.90
15749;DHT22;7976;52.526;13.326;2024-01-15T05:30:26;2.40;99.90
15749;DHT22;7976;52.526;13.326;2024-01-15T05:32:54;2.30;99.90
15749;DHT22;7976;52.526;13.326;2024-01-15T05:35:21;2.40;99.90
15749;DHT22;7976;52.526;13.326;2024-01-15T05:37:47;2.40;99.90
15749;DHT22;7976;52.526;13.326;2024-01-15T05:40:17;2.40;99.90
15749;DHT22;7976;52.526;13.326;2024-01-15T05:42:44;2.40;99.90
15749;DHT22;7976;52.526;13.326;2024-01-15T05:45:11;2.40;99.90
15749;DHT22;7976;52.526;13.326;2024-01-15T05:47:38;2.40;99.90
15749;DHT22;7976;52.526;13.326;2024-01-15T05:50:06;2.40;99.90
15749;DHT22;7976;52.526;13.326;2024-01-15T05:52:33;2.40;99.90
15749;DHT22;7976;52.526;13.326;2024-01-15T05:54:59;2.50;99.90
15749;DHT22;7976;52.526;13.326;2024-01-15T05:57:26;2.40;99.90
15749;DHT22;7976;52.526;13.326;2024-01-15T05:59:53;2.40;99.90
15749;DHT22;7976;52.526;13.326;2024-01-15T06:02:20;2.30;99.90
15749;DHT22;7976;52.526;13.326;2024-01-15T06:04:47;2.30;99.90
15749;DHT22;7976;52.526;13.326;2024-01-15T06:07:15;2.30;99.90
15749;DHT22;7976;52.526;13.326;2024-01-15T06:09:42;2.20;99.90
15749;DHT22;7976;52.526;13.326;2024-01-15T06:12:09;2.20;99.90
15749;DHT22;7976;52.526;13.326;2024-01-15T06:14:36;2.30;99.90
15749;DHT22;7976;52.526;13.326;2024-01-15T06:17:03;2.30;99.90
15749;DHT22;7976;52.526;13.326;2024-01-15T06:19:30;2.30;99.90
15749;DHT22;7976;52.526;13.326;2024-01-15T06:21:57;2.30;99.90
15749;DHT22;7976;52.526;13.326;2024-01-15T06:24:25;2.30;99.90
15749;DHT22;7976;52.526;13.326;2024-01-15T06:26:52;2.40;99.90
15749;DHT22;7976;52.526;13.326;2024-01-15T06:29:19;2.30;99.90
15749;DHT22;7976;52.526;13.326;2024-01-15T06:31:46;2.30;99.90
15749;DHT22;7976;52.526;13.326;2024-01-15T06:34:13;2.40;99.90
15749;DHT22;7976;52.526;13.326;2024-01-15T06:36:41;2.40;99.90
15749;DHT22;7976;52.526;13.326;2024-01-15T06:39:09;2.40;99.90
15749;DHT22;7976;52.526;13.326;2024-01-15T06:41:37;2.40;99.90
15749;DHT22;7976;52.526;13.326;2024-01-15T06:44:08;2.40;99.90
15749;DHT22;7976;52.526;13.326;2024-01-15T06:46:36;2.40;99.90
15749;DHT22;7976;52.526;13.326;2024-01-15T06:49:03;2.40;99.90
15749;DHT22;7976;52.526;13.326;2024-01-15T06:51:30;2.40;99.90
15749;DHT22;7976;52.526;13.326;2024-01-15T06:53:56;2.40;99.90
15749;DHT22;7976;52.526;13.326;2024-01-15T06:56:23;2.50;99.90
15749;DHT22;7976;52.526;13.326;2024-01-15T06:58:51;2.50;99.90
15749;DHT22;7976;52.526;13.326;2024-01-15T07:01:18;2.50;99.90
15749;DHT22;7976;52.526;13.326;2024-01-15T07:03:45;2.50;99.90
15749;DHT22;7976;52.526;13.326;2024-01-15T07:06:12;2.50;99.90
15749;DHT22;7976;52.526;13.326;2024-01-15T07:08:39;2.50;99.90
15749;DHT22;7976;52.526;13.326;2024-01-15T07:11:07;2.60;99.90
15749;DHT22;7976;52.526;13.326;2024-01-15T07:13:35;2.60;99.90
15749;DHT22;7976;52.526;13.326;2024-01-15T07:16:04;2.60;99.90
15749;DHT22;7976;52.526;13.326;2024-01-15T07:18:31;2.60;99.90
15749;DHT22;7976;52.526;13.326;2024-01-15T07:20:58;2.70;99.90
15749;DHT22;7976;52.526;13.326;2024-01-15T07:23:26;2.70;99.90
15749;DHT22;7976;52.526;13.326;2024-01-15T07:25:53;2.70;99.90
15749;DHT22;7976;52.526;13.326;2024-01-15T07:28:20;2.70;99.90
15749;DHT22;7976;52.526;13.326;2024-01-15T07:30:48;2.70;99.90
15749;DHT22;7976;52.526;13.326;2024-01-15T07:33:16;2.70;99.90
15749;DHT22;7976;52.526;13.326;2024-01-15T07:35:46;2.70;99.90
15749;DHT22;7976;52.526;13.326;2024-01-15T07:40:58;2.70;99.90
15749;DHT22;7976;52.526;13.326;2024-01-15T07:43:25;2.80;99.90
15749;DHT22;7976;52.526;13.326;2024-01-15T07:45:53;2.80;99.90
15749;DHT22;7976;52.526;13.326;2024-01-15T07:48:21;2.80;99.90
15749;DHT22;7976;52.526;13.326;2024-01-15T07:50:48;2.80;99.90
15749;DHT22;7976;52.526;13.326;2024-01-15T07:53:15;2.80;99.90
15749;DHT22;7976;52.526;13.326;2024-01-15T07:55:42;2.80;99.90
15749;DHT22;7976;52.526;13.326;2024-01-15T07:58:11;2.80;99.90
15749;DHT22;7976;52.526;13.326;2024-01-15T08:00:38;2.80;99.90
15749;DHT22;7976;52.526;13.326;2024-01-15T08:03:05;2.80;99.90
15749;DHT22;7976;52.526;13.326;2024-01-15T08:05:33;2.80;99.90
15749;DHT22;7976;52.526;13.326;2024-01-15T08:08:00;2.80;99.90
15749;DHT22;7976;52.526;13.326;2024-01-15T08:10:27;2.80;99.90
15749;DHT22;7976;52.526;13.326;2024-01-15T08:12:54;2.80;99.90
15749;DHT22;7976;52.526;13.326;2024-01-15T08:15:21;2.90;99.90
15749;DHT22;7976;52.526;13.326;2024-01-15T08:17:48;2.90;99.90
15749;DHT22;7976;52.526;13.326;2024-01-15T08:20:16;2.90;99.90
15749;DHT22;7976;52.526;13.326;2024-01-15T08:22:44;2.90;99.90
15749;DHT22;7976;52.526;13.326;2024-01-15T08:25:12;3.00;99.90
15749;DHT22;7976;52.526;13.326;2024-01-15T08:27:39;3.00;99.90
15749;DHT22;7976;52.526;13.326;2024-01-15T08:30:07;3.00;99.90
15749;DHT22;7976;52.526;13.326;2024-01-15T08:32:35;3.00;99.90
15749;DHT22;7976;52.526;13.326;2024-01-15T08:35:06;3.10;99.90
15749;DHT22;7976;52.526;13.326;2024-01-15T08:37:33;3.10;99.90
15749;DHT22;7976;52.526;13.326;2024-01-15T08:40:01;3.10;99.90
15749;DHT22;7976;52.526;13.326;2024-01-15T08:42:29;3.10;99.90
15749;DHT22;7976;52.526;13.326;2024-01-15T08:44:56;3.10;99.90
15749;DHT22;7976;52.526;13.326;2024-01-15T08:47:23;3.10;99.90
15749;DHT22;7976;52.526;13.326;2024-01-15T08:49:51;3.10;99.90
15749;DHT22;7976;52.526;13.326;2024-01-15T08:52:18;3.10;99.90
15749;DHT22;7976;52.526;13.326;2024-01-15T08:54:45;3.20;99.90
15749;DHT22;7976;52.526;13.326;2024-01-15T08:57:13;3.20;99.90
15749;DHT22;7976;52.526;13.326;2024-01-15T08:59:40;3.20;99.90
15749;DHT22;7976;52.526;13.326;2024-01-15T09:02:08;3.20;99.90
15749;DHT22;7976;52.526;13.326;2024-01-15T09:04:35;3.10;99.90
15749;DHT22;7976;52.526;13.326;2024-01-15T09:07:02;3.10;99.90
15749;DHT22;7976;52.526;13.326;2024-01-15T09:09:29;3.10;99.90
15749;DHT22;7976;52.526;13.326;2024-01-15T09:11:56;3.20;99.90
15749;DHT22;7976;52.526;13.326;2024-01-15T09:14:24;3.20;99.90
15749;DHT22;7976;52.526;13.326;2024-01-15T09:16:53;3.20;99.90
15749;DHT22;7976;52.526;13.326;2024-01-15T09:19:20;3.20;99.90
15749;DHT22;7976;52.526;13.326;2024-01-15T09:21:46;3.10;99.90
15749;DHT22;7976;52.526;13.326;2024-01-15T09:24:13;3.10;99.90
15749;DHT22;7976;52.526;13.326;2024-01-15T09:26:40;3.20;99.90
15749;DHT22;7976;52.526;13.326;2024-01-15T09:29:07;3.30;99.90
15749;DHT22;7976;52.526;13.326;2024-01-15T09:31:36;3.30;99.90
15749;DHT22;7976;52.526;13.326;2024-01-15T09:34:03;3.30;99.90
15749;DHT22;7976;52.526;13.326;2024-01-15T09:36:30;3.30;99.90
15749;DHT22;7976;52.526;13.326;2024-01-15T09:38:57;3.40;99.90
15749;DHT22;7976;52.526;13.326;2024-01-15T09:41:24;3.40;99.90
15749;DHT22;7976;52.526;13.326;2024-01-15T09:43:52;3.50;99.90
15749;DHT22;7976;52.526;13.326;2024-01-15T09:46:19;3.50;99.90
15749;DHT22;7976;52.526;13.326;2024-01-15T09:48:47;3.40;99.90
15749;DHT22;7976;52.526;13.326;2024-01-15T09:51:15;3.40;99.90
15749;DHT22;7976;52.526;13.326;2024-01-15T09:53:43;3.40;99.90
15749;DHT22;7976;52.526;13.326;2024-01-15T09:56:11;3.40;99.90
15749;DHT22;7976;52.526;13.326;2024-01-15T09:58:39;3.50;99.90
15749;DHT22;7976;52.526;13.326;2024-01-15T10:01:07;3.50;99.90
15749;DHT22;7976;52.526;13.326;2024-01-15T10:03:35;3.50;99.90
15749;DHT22;7976;52.526;13.326;2024-01-15T10:06:05;3.60;99.90
15749;DHT22;7976;52.526;13.326;2024-01-15T10:08:35;3.60;99.90
15749;DHT22;7976;52.526;13.326;2024-01-15T10:11:04;3.70;99.90
15749;DHT22;7976;52.526;13.326;2024-01-15T10:13:31;3.70;99.90
15749;DHT22;7976;52.526;13.326;2024-01-15T10:16:01;3.70;99.90
15749;DHT22;7976;52.526;13.326;2024-01-15T10:18:28;3.70;99.90
15749;DHT22;7976;52.526;13.326;2024-01-15T10:20:56;3.70;99.90
15749;DHT22;7976;52.526;13.326;2024-01-15T10:23:24;3.70;99.90
15749;DHT22;7976;52.526;13.326;2024-01-15T10:25:51;3.70;99.90
15749;DHT22;7976;52.526;13.326;2024-01-15T10:28:19;3.80;99.90
15749;DHT22;7976;52.526;13.326;2024-01-15T10:30:46;3.80;99.90
15749;DHT22;7976;52.526;13.326;2024-01-15T10:33:13;3.90;99.90
15749;DHT22;7976;52.526;13.326;2024-01-15T10:35:41;4.00;99.90
15749;DHT22;7976;52.526;13.326;2024-01-15T10:38:07;4.00;99.90
15749;DHT22;7976;52.526;13.326;2024-01-15T10:40:36;4.00;99.90
15749;DHT22;7976;52.526;13.326;2024-01-15T10:43:03;4.00;99.90
15749;DHT22;7976;52.526;13.326;2024-01-15T10:45:30;3.90;99.90
15749;DHT22;7976;52.526;13.326;2024-01-15T10:47:57;3.90;99.90
15749;DHT22;7976;52.526;13.326;2024-01-15T10:50:25;3.90;99.90
15749;DHT22;7976;52.526;13.326;2024-01-15T10:52:53;3.90;99.90
15749;DHT22;7976;52.526;13.326;2024-01-15T10:55:20;3.90;99.90
15749;DHT22;7976;52.526;13.326;2024-01-15T10:57:49;3.80;99.90
15749;DHT22;7976;52.526;13.326;2024-01-15T11:00:16;3.90;99.90
15749;DHT22;7976;52.526;13.326;2024-01-15T11:02:44;3.80;99.90
15749;DHT22;7976;52.526;13.326;2024-01-15T11:05:12;3.90;99.90
15749;DHT22;7976;52.526;13.326;2024-01-15T11:07:39;4.00;99.90
15749;DHT22;7976;52.526;13.326;2024-01-15T11:10:08;4.00;99.90
15749;DHT22;7976;52.526;13.326;2024-01-15T11:12:57;4.10;99.90
15749;DHT22;7976;52.526;13.326;2024-01-15T11:15:24;4.10;99.90
15749;DHT22;7976;52.526;13.326;2024-01-15T11:18:01;4.10;99.90
15749;DHT22;7976;52.526;13.326;2024-01-15T11:20:31;4.10;99.90
15749;DHT22;7976;52.526;13.326;2024-01-15T11:22:58;4.00;99.90
15749;DHT22;7976;52.526;13.326;2024-01-15T11:25:34;3.90;99.90
15749;DHT22;7976;52.526;13.326;2024-01-15T11:28:04;3.90;99.90
15749;DHT22;7976;52.526;13.326;2024-01-15T11:30:31;3.90;99.90
15749;DHT22;7976;52.526;13.326;2024-01-15T11:33:02;3.80;99.90
15749;DHT22;7976;52.526;13.326;2024-01-15T11:35:48;3.80;99.90
15749;DHT22;7976;52.526;13.326;2024-01-15T11:38:27;3.80;99.90
15749;DHT22;7976;52.526;13.326;2024-01-15T11:40:55;3.80;99.90
15749;DHT22;7976;52.526;13.326;2024-01-15T11:43:23;3.80;99.90
15749;DHT22;7976;52.526;13.326;2024-01-15T11:45:54;3.70;99.90
15749;DHT22;7976;52.526;13.326;2024-01-15T11:48:21;3.70;99.90
15749;DHT22;7976;52.526;13.326;2024-01-15T11:50:56;3.60;99.90
15749;DHT22;7976;52.526;13.326;2024-01-15T11:53:32;3.50;99.90
15749;DHT22;7976;52.526;13.326;2024-01-15T11:56:03;3.20;99.90
15749;DHT22;7976;52.526;13.326;2024-01-15T11:58:40;3.00;99.90
15749;DHT22;7976;52.526;13.326;2024-01-15T12:01:07;2.80;99.90
15749;DHT22;7976;52.526;13.326;2024-01-15T12:03:34;2.80;99.90
15749;DHT22;7976;52.526;13.326;2024-01-15T12:06:01;2.70;99.90
15749;DHT22;7976;52.526;13.326;2024-01-15T12:08:28;2.70;99.90
15749;DHT22;7976;52.526;13.326;2024-01-15T12:10:55;2.70;99.90
15749;DHT22;7976;52.526;13.326;2024-01-15T12:13:22;2.70;99.90
15749;DHT22;7976;52.526;13.326;2024-01-15T12:15:50;2.70;99.90
15749;DHT22;7976;52.526;13.326;2024-01-15T12:18:18;2.70;99.90
15749;DHT22;7976;52.526;13.326;2024-01-15T12:20:46;2.70;99.90
15749;DHT22;7976;52.526;13.326;2024-01-15T12:23:16;2.70;99.90
15749;DHT22;7976;52.526;13.326;2024-01-15T12:25:43;2.70;99.90
15749;DHT22;7976;52.526;13.326;2024-01-15T12:28:11;2.70;99.90
15749;DHT22;7976;52.526;13.326;2024-01-15T12:30:39;2.80;99.90
15749;DHT22;7976;52.526;13.326;2024-01-15T12:33:08;2.80;99.90
15749;DHT22;7976;52.526;13.326;2024-01-15T12:35:35;2.80;99.90
15749;DHT22;7976;52.526;13.326;2024-01-15T12:38:03;2.80;99.90
15749;DHT22;7976;52.526;13.326;2024-01-15T12:40:31;2.80;99.90
15749;DHT22;7976;52.526;13.326;2024-01-15T12:42:59;2.80;99.90
15749;DHT22;7976;52.526;13.326;2024-01-15T12:45:27;2.80;99.90
15749;DHT22;7976;52.526;13.326;2024-01-15T12:47:54;2.60;99.90
15749;DHT22;7976;52.526;13.326;2024-01-15T12:50:25;2.50;99.90
15749;DHT22;7976;52.526;13.326;2024-01-15T12:52:53;2.50;99.90
15749;DHT22;7976;52.526;13.326;2024-01-15T12:55:20;2.50;99.90
15749;DHT22;7976;52.526;13.326;2024-01-15T12:57:47;2.50;99.90
15749;DHT22;7976;52.526;13.326;2024-01-15T13:00:15;2.50;99.90
15749;DHT22;7976;52.526;13.326;2024-01-15T13:02:42;2.50;99.90
15749;DHT22;7976;52.526;13.326;2024-01-15T13:05:10;2.50;99.90
15749;DHT22;7976;52.526;13.326;2024-01-15T13:07:39;2.50;99.90
15749;DHT22;7976;52.526;13.326;2024-01-15T13:10:07;2.50;99.90
15749;DHT22;7976;52.526;13.326;2024-01-15T13:12:34;2.60;99.90
15749;DHT22;7976;52.526;13.326;2024-01-15T13:15:02;2.60;99.90
15749;DHT22;7976;52.526;13.326;2024-01-15T13:17:29;2.60;99.90
15749;DHT22;7976;52.526;13.326;2024-01-15T13:19:56;2.70;99.90
15749;DHT22;7976;52.526;13.326;2024-01-15T13:22:23;2.70;99.90
15749;DHT22;7976;52.526;13.326;2024-01-15T13:24:56;2.70;99.90
15749;DHT22;7976;52.526;13.326;2024-01-15T13:27:23;2.80;99.90
15749;DHT22;7976;52.526;13.326;2024-01-15T13:29:50;2.70;99.90
15749;DHT22;7976;52.526;13.326;2024-01-15T13:32:22;2.70;99.90
15749;DHT22;7976;52.526;13.326;2024-01-15T13:34:51;2.70;99.90
15749;DHT22;7976;52.526;13.326;2024-01-15T13:37:18;2.70;99.90
15749;DHT22;7976;52.526;13.326;2024-01-15T13:39:44;2.70;99.90
15749;DHT22;7976;52.526;13.326;2024-01-15T13:42:12;2.80;99.90
15749;DHT22;7976;52.526;13.326;2024-01-15T13:44:40;2.70;99.90
15749;DHT22;7976;52.526;13.326;2024-01-15T13:47:07;2.70;99.90
15749;DHT22;7976;52.526;13.326;2024-01-15T13:49:34;2.70;99.90
15749;DHT22;7976;52.526;13.326;2024-01-15T13:52:03;2.70;99.90
15749;DHT22;7976;52.526;13.326;2024-01-15T13:54:30;2.70;99.90
15749;DHT22;7976;52.526;13.326;2024-01-15T13:56:57;2.70;99.90
15749;DHT22;7976;52.526;13.326;2024-01-15T13:59:25;2.80;99.90
15749;DHT22;7976;52.526;13.326;2024-01-15T14:01:52;2.80;99.90
15749;DHT22;7976;52.526;13.326;2024-01-15T14:04:19;2.80;99.90
15749;DHT22;7976;52.526;13.326;2024-01-15T14:06:46;2.80;99.90
15749;DHT22;7976;52.526;13.326;2024-01-15T14:09:13;2.80;99.90
15749;DHT22;7976;52.526;13.326;2024-01-15T14:11:40;2.80;99.90
15749;DHT22;7976;52.526;13.326;2024-01-15T14:14:07;2.90;99.90
15749;DHT22;7976;52.526;13.326;2024-01-15T14:16:36;2.90;99.90
15749;DHT22;7976;52.526;13.326;2024-01-15T14:19:03;2.90;99.90
15749;DHT22;7976;52.526;13.326;2024-01-15T14:21:31;2.90;99.90
15749;DHT22;7976;52.526;13.326;2024-01-15T14:23:58;2.90;99.90
15749;DHT22;7976;52.526;13.326;2024-01-15T14:26:25;2.90;99.90
15749;DHT22;7976;52.526;13.326;2024-01-15T14:28:53;2.90;99.90
15749;DHT22;7976;52.526;13.326;2024-01-15T14:31:20;2.90;99.90
15749;DHT22;7976;52.526;13.326;2024-01-15T14:33:48;2.90;99.90
15749;DHT22;7976;52.526;13.326;2024-01-15T14:36:15;2.90;99.90
15749;DHT22;7976;52.526;13.326;2024-01-15T14:38:42;2.90;99.90
15749;DHT22;7976;52.526;13.326;2024-01-15T14:41:09;2.90;99.90
15749;DHT22;7976;52.526;13.326;2024-01-15T14:43:36;2.90;99.90
15749;DHT22;7976;52.526;13.326;2024-01-15T14:46:03;2.90;99.90
15749;DHT22;7976;52.526;13.326;2024-01-15T14:48:31;2.90;99.90
15749;DHT22;7976;52.526;13.326;2024-01-15T14:50:59;2.90;99.90
15749;DHT22;7976;52.526;13.326;2024-01-15T14:53:28;2.80;99.90
15749;DHT22;7976;52.526;13.326;2024-01-15T14:55:55;2.90;99.90
15749;DHT22;7976;52.526;13.326;2024-01-15T14:58:22;2.90;99.90
15749;DHT22;7976;52.526;13.326;2024-01-15T15:00:49;2.80;99.90
15749;DHT22;7976;52.526;13.326;2024-01-15T15:03:16;2.90;99.90
15749;DHT22;7976;52.526;13.326;2024-01-15T15:05:43;2.90;99.90
15749;DHT22;7976;52.526;13.326;2024-01-15T15:08:11;2.90;99.90
15749;DHT22;7976;52.526;13.326;2024-01-15T15:10:38;2.90;99.90
15749;DHT22;7976;52.526;13.326;2024-01-15T15:13:06;2.80;99.90
15749;DHT22;7976;52.526;13.326;2024-01-15T15:15:33;2.80;99.90
15749;DHT22;7976;52.526;13.326;2024-01-15T15:18:00;2.80;99.90
15749;DHT22;7976;52.526;13.326;2024-01-15T15:20:27;2.80;99.90
15749;DHT22;7976;52.526;13.326;2024-01-15T15:22:53;2.80;99.90
15749;DHT22;7976;52.526;13.326;2024-01-15T15:25:22;2.80;99.90
15749;DHT22;7976;52.526;13.326;2024-01-15T15:27:49;2.80;99.90
15749;DHT22;7976;52.526;13.326;2024-01-15T15:30:16;2.80;99.90
15749;DHT22;7976;52.526;13.326;2024-01-15T15:32:43;2.80;99.90
15749;DHT22;7976;52.526;13.326;2024-01-15T15:35:10;2.70;99.90
15749;DHT22;7976;52.526;13.326;2024-01-15T15:37:37;2.70;99.90
15749;DHT22;7976;52.526;13.326;2024-01-15T15:40:05;2.60;99.90
15749;DHT22;7976;52.526;13.326;2024-01-15T15:42:35;2.60;99.90
15749;DHT22;7976;52.526;13.326;2024-01-15T15:45:02;2.50;99.90
15749;DHT22;7976;52.526;13.326;2024-01-15T15:47:30;2.50;99.90
15749;DHT22;7976;52.526;13.326;2024-01-15T15:49:57;2.40;99.90